createdAt,value
2019-01-11T00:00:02.677Z,-2.1
2019-01-11T00:15:02.972Z,-2.1
2019-01-11T00:30:02.566Z,-2.2
2019-01-11T00:45:02.778Z,-2.2
2019-01-11T01:00:03.212Z,-2.3
2019-01-11T01:15:02.467Z,-2.3
2019-01-11T01:30:02.774Z,-2.3
2019-01-11T01:45:03.197Z,-2.4
2019-01-11T02:00:03.408Z,-2.4
2019-01-11T02:15:02.740Z,-2.4
2019-01-11T02:30:03.151Z,-2.4
2019-01-11T02:45:03.361Z,-2.4
2019-01-11T03:00:02.664Z,-2.5
2019-01-11T03:15:02.933Z,-2.5
2019-01-11T03:30:03.326Z,-2.7
2019-01-11T03:45:02.824Z,-2.7
2019-01-11T04:00:03.151Z,-2.9
2019-01-11T04:15:03.536Z,-3.1
2019-01-11T04:30:02.743Z,-3.2
2019-01-11T04:45:03.064Z,-3.8
2019-01-11T05:00:03.291Z,-3.8
2019-01-11T05:15:02.579Z,-3.9
2019-01-11T05:30:02.914Z,-4.6
2019-01-11T05:45:03.300Z,-4
2019-01-11T06:00:02.508Z,-3.7
2019-01-11T06:15:03.055Z,-3.7
2019-01-11T06:30:02.915Z,-3.6
2019-01-11T06:45:03.213Z,-3.7
2019-01-11T07:00:02.512Z,-3.4
2019-01-11T07:15:02.777Z,-3.3
2019-01-11T07:30:03.213Z,-3.1
2019-01-11T07:45:02.459Z,-3.1
2019-01-11T08:00:02.813Z,-2.9
2019-01-11T08:15:03.131Z,-2.8
2019-01-11T08:30:02.753Z,-2.5
2019-01-11T08:45:03.073Z,-2.4
2019-01-11T09:00:03.382Z,-2.1
2019-01-11T09:15:02.653Z,-2.2
2019-01-11T09:30:03.190Z,-2
2019-01-11T09:45:03.445Z,-1.4
2019-01-11T10:00:02.848Z,-0.9
2019-01-11T10:15:03.028Z,-1.1
2019-01-11T10:30:03.240Z,-1.1
2019-01-11T10:45:02.523Z,-1.1
2019-01-11T11:00:02.946Z,-1
2019-01-11T11:15:03.252Z,-0.8
2019-01-11T11:30:02.704Z,-0.1
2019-01-11T11:45:03.269Z,-0.3
2019-01-11T12:00:02.924Z,0.1
2019-01-11T12:15:02.896Z,0.7
2019-01-11T12:30:03.339Z,0.1
2019-01-11T12:45:02.745Z,0
2019-01-11T13:00:03.080Z,-0.1
2019-01-11T13:15:02.584Z,-0.1
2019-01-11T13:30:02.978Z,-0.2
2019-01-11T13:45:02.577Z,-0.4
2019-01-11T14:00:02.706Z,-0.5
2019-01-11T14:15:02.939Z,-0.8
2019-01-11T14:30:03.494Z,-1
2019-01-11T14:45:02.980Z,-1.1
2019-01-11T15:00:03.246Z,-1.2
2019-01-11T15:15:02.435Z,-1.3
2019-01-11T15:30:02.893Z,-1.4
2019-01-11T15:45:03.220Z,-1.4
2019-01-11T16:00:02.674Z,-1.6
2019-01-11T16:15:03.022Z,-1.6
2019-01-11T16:30:03.225Z,-1.6
2019-01-11T16:45:02.614Z,-1.6
2019-01-11T17:00:02.709Z,-1.6
2019-01-11T17:15:03.055Z,-1.6
2019-01-11T17:30:02.501Z,-1.6
2019-01-11T17:45:02.989Z,-1.6
2019-01-11T18:00:03.609Z,-1.6
2019-01-11T18:15:02.581Z,-1.5
2019-01-11T18:30:03.006Z,-1.4
2019-01-11T18:45:03.203Z,-1.4
2019-01-11T19:00:02.507Z,-1.4
2019-01-11T19:15:02.751Z,-1.4
2019-01-11T19:30:02.499Z,-1.4
2019-01-11T19:45:02.817Z,-1.4
2019-01-11T20:00:03.169Z,-1.4
2019-01-11T20:15:03.376Z,-1.4
2019-01-11T20:30:02.749Z,-1.4
2019-01-11T20:45:02.948Z,-1.4
2019-01-11T21:00:03.376Z,-1.4
2019-01-11T21:15:02.659Z,-1.4
2019-01-11T21:30:03.063Z,-1.4
2019-01-11T21:45:03.333Z,-1.3
2019-01-11T22:00:02.678Z,-1.2
2019-01-11T22:15:02.976Z,-1.2
2019-01-11T22:30:03.374Z,-1.2
2019-01-11T22:45:02.664Z,-1.1
2019-01-11T23:00:02.611Z,-1.1
2019-01-11T23:15:02.837Z,-1
2019-01-11T23:30:03.153Z,-0.9
2019-01-11T23:45:03.194Z,-0.8
